sensor_id;sensor_type;location;lat;lon;timestamp;temperature;humidity
32895;DHT22;19251;49.484;8.260;2023-06-14T00:00:54;18.40;9.80
32895;DHT22;19251;49.484;8.260;2023-06-14T00:05:58;18.40;10.00
32895;DHT22;19251;49.484;8.260;2023-06-14T00:11:00;18.30;9.80
32895;DHT22;19251;49.484;8.260;2023-06-14T00:16:03;18.20;10.40
32895;DHT22;19251;49.484;8.260;2023-06-14T00:21:05;18.20;10.60
32895;DHT22;19251;49.484;8.260;2023-06-14T00:26:08;18.20;10.90
32895;DHT22;19251;49.484;8.260;2023-06-14T00:31:10;18.20;10.80
32895;DHT22;19251;49.484;8.260;2023-06-14T00:36:13;18.10;10.80
32895;DHT22;19251;49.484;8.260;2023-06-14T00:41:17;18.10;10.70
32895;DHT22;19251;49.484;8.260;2023-06-14T00:46:19;18.10;11.10
32895;DHT22;19251;49.484;8.260;2023-06-14T00:51:30;18.00;11.30
32895;DHT22;19251;49.484;8.260;2023-06-14T00:56:36;18.00;11.40
32895;DHT22;19251;49.484;8.260;2023-06-14T01:01:39;18.00;11.30
32895;DHT22;19251;49.484;8.260;2023-06-14T01:07:05;18.10;11.90
32895;DHT22;19251;49.484;8.260;2023-06-14T01:17:35;17.80;11.80
32895;DHT22;19251;49.484;8.260;2023-06-14T01:22:52;17.90;11.90
32895;DHT22;19251;49.484;8.260;2023-06-14T01:28:11;17.80;11.90
32895;DHT22;19251;49.484;8.260;2023-06-14T01:33:16;17.80;11.90
32895;DHT22;19251;49.484;8.260;2023-06-14T01:38:21;17.80;11.90
32895;DHT22;19251;49.484;8.260;2023-06-14T01:48:28;17.60;12.20
32895;DHT22;19251;49.484;8.260;2023-06-14T01:58:32;17.50;12.10
32895;DHT22;19251;49.484;8.260;2023-06-14T02:03:35;17.50;12.20
32895;DHT22;19251;49.484;8.260;2023-06-14T02:08:40;17.50;12.40
32895;DHT22;19251;49.484;8.260;2023-06-14T02:13:51;17.50;12.70
32895;DHT22;19251;49.484;8.260;2023-06-14T02:18:53;17.40;12.60
32895;DHT22;19251;49.484;8.260;2023-06-14T02:29:04;17.30;12.80
32895;DHT22;19251;49.484;8.260;2023-06-14T02:34:27;17.40;12.90
32895;DHT22;19251;49.484;8.260;2023-06-14T02:39:32;17.30;13.10
32895;DHT22;19251;49.484;8.260;2023-06-14T02:44:34;17.30;13.20
32895;DHT22;19251;49.484;8.260;2023-06-14T02:49:37;17.20;13.10
32895;DHT22;19251;49.484;8.260;2023-06-14T02:54:39;17.20;13.20
32895;DHT22;19251;49.484;8.260;2023-06-14T02:59:43;17.20;13.10
32895;DHT22;19251;49.484;8.260;2023-06-14T03:04:45;17.20;13.40
32895;DHT22;19251;49.484;8.260;2023-06-14T03:09:49;17.10;13.30
32895;DHT22;19251;49.484;8.260;2023-06-14T03:14:53;17.10;13.20
32895;DHT22;19251;49.484;8.260;2023-06-14T03:20:09;17.10;13.50
32895;DHT22;19251;49.484;8.260;2023-06-14T03:25:12;17.00;13.90
32895;DHT22;19251;49.484;8.260;2023-06-14T03:30:19;17.10;13.90
32895;DHT22;19251;49.484;8.260;2023-06-14T03:35:23;17.00;14.10
32895;DHT22;19251;49.484;8.260;2023-06-14T03:40:25;17.00;13.90
32895;DHT22;19251;49.484;8.260;2023-06-14T03:45:32;17.00;13.90
32895;DHT22;19251;49.484;8.260;2023-06-14T03:50:34;17.10;14.00
32895;DHT22;19251;49.484;8.260;2023-06-14T03:55:36;17.10;13.90
32895;DHT22;19251;49.484;8.260;2023-06-14T04:00:59;17.20;14.00
32895;DHT22;19251;49.484;8.260;2023-06-14T04:06:05;17.20;13.90
32895;DHT22;19251;49.484;8.260;2023-06-14T04:11:08;17.30;14.10
32895;DHT22;19251;49.484;8.260;2023-06-14T04:16:10;17.20;13.90
32895;DHT22;19251;49.484;8.260;2023-06-14T04:21:13;17.10;14.00
32895;DHT22;19251;49.484;8.260;2023-06-14T04:26:15;17.30;14.40
32895;DHT22;19251;49.484;8.260;2023-06-14T04:31:19;17.40;14.40
32895;DHT22;19251;49.484;8.260;2023-06-14T04:36:24;17.50;14.40
32895;DHT22;19251;49.484;8.260;2023-06-14T04:41:30;17.60;14.50
32895;DHT22;19251;49.484;8.260;2023-06-14T04:46:34;17.70;14.50
32895;DHT22;19251;49.484;8.260;2023-06-14T04:57:00;17.90;14.50
32895;DHT22;19251;49.484;8.260;2023-06-14T05:02:02;18.10;14.30
32895;DHT22;19251;49.484;8.260;2023-06-14T05:17:11;18.70;14.10
32895;DHT22;19251;49.484;8.260;2023-06-14T05:22:14;18.90;14.00
32895;DHT22;19251;49.484;8.260;2023-06-14T05:27:17;19.10;13.60
32895;DHT22;19251;49.484;8.260;2023-06-14T05:32:19;19.30;13.30
32895;DHT22;19251;49.484;8.260;2023-06-14T05:42:24;19.70;12.90
32895;DHT22;19251;49.484;8.260;2023-06-14T05:47:26;19.90;12.90
32895;DHT22;19251;49.484;8.260;2023-06-14T05:52:29;20.10;12.90
32895;DHT22;19251;49.484;8.260;2023-06-14T05:57:33;20.30;12.60
32895;DHT22;19251;49.484;8.260;2023-06-14T06:02:35;20.60;12.40
32895;DHT22;19251;49.484;8.260;2023-06-14T06:07:38;20.80;12.20
32895;DHT22;19251;49.484;8.260;2023-06-14T06:17:45;21.30;11.40
32895;DHT22;19251;49.484;8.260;2023-06-14T06:23:00;21.50;11.00
32895;DHT22;19251;49.484;8.260;2023-06-14T06:33:05;22.00;10.70
32895;DHT22;19251;49.484;8.260;2023-06-14T06:38:08;22.20;10.70
32895;DHT22;19251;49.484;8.260;2023-06-14T06:43:12;22.50;10.10
32895;DHT22;19251;49.484;8.260;2023-06-14T06:48:19;22.70;10.20
32895;DHT22;19251;49.484;8.260;2023-06-14T06:53:22;22.90;9.90
32895;DHT22;19251;49.484;8.260;2023-06-14T07:03:43;23.50;8.80
32895;DHT22;19251;49.484;8.260;2023-06-14T07:08:46;23.70;8.50
32895;DHT22;19251;49.484;8.260;2023-06-14T07:13:51;24.00;8.50
32895;DHT22;19251;49.484;8.260;2023-06-14T07:18:54;24.20;7.70
32895;DHT22;19251;49.484;8.260;2023-06-14T07:23:57;24.40;7.30
32895;DHT22;19251;49.484;8.260;2023-06-14T07:28:59;24.60;6.70
32895;DHT22;19251;49.484;8.260;2023-06-14T07:34:01;24.80;6.30
32895;DHT22;19251;49.484;8.260;2023-06-14T07:39:04;25.00;6.70
32895;DHT22;19251;49.484;8.260;2023-06-14T07:44:08;25.10;6.00
32895;DHT22;19251;49.484;8.260;2023-06-14T07:49:10;25.30;5.60
32895;DHT22;19251;49.484;8.260;2023-06-14T07:54:13;25.50;5.20
32895;DHT22;19251;49.484;8.260;2023-06-14T07:59:16;25.60;5.20
32895;DHT22;19251;49.484;8.260;2023-06-14T08:04:19;25.80;4.60
32895;DHT22;19251;49.484;8.260;2023-06-14T08:09:21;25.90;4.40
32895;DHT22;19251;49.484;8.260;2023-06-14T08:14:24;26.10;3.90
32895;DHT22;19251;49.484;8.260;2023-06-14T08:19:26;26.20;4.00
32895;DHT22;19251;49.484;8.260;2023-06-14T08:24:28;26.30;3.40
32895;DHT22;19251;49.484;8.260;2023-06-14T08:29:31;26.40;3.20
32895;DHT22;19251;49.484;8.260;2023-06-14T08:34:33;26.50;3.20
32895;DHT22;19251;49.484;8.260;2023-06-14T08:39:35;26.80;2.10
32895;DHT22;19251;49.484;8.260;2023-06-14T08:44:37;26.90;2.10
32895;DHT22;19251;49.484;8.260;2023-06-14T08:49:40;26.90;1.40
32895;DHT22;19251;49.484;8.260;2023-06-14T08:54:47;27.00;1.40
32895;DHT22;19251;49.484;8.260;2023-06-14T08:59:51;27.10;1.60
32895;DHT22;19251;49.484;8.260;2023-06-14T09:04:57;27.30;1.20
32895;DHT22;19251;49.484;8.260;2023-06-14T09:10:13;27.40;1.00
32895;DHT22;19251;49.484;8.260;2023-06-14T09:15:16;27.50;1.00
32895;DHT22;19251;49.484;8.260;2023-06-14T09:20:18;27.50;1.00
32895;DHT22;19251;49.484;8.260;2023-06-14T09:25:21;27.70;1.00
32895;DHT22;19251;49.484;8.260;2023-06-14T09:30:40;27.80;1.00
32895;DHT22;19251;49.484;8.260;2023-06-14T09:35:45;27.80;1.00
32895;DHT22;19251;49.484;8.260;2023-06-14T09:40:49;27.90;1.00
32895;DHT22;19251;49.484;8.260;2023-06-14T09:45:52;28.10;1.00
32895;DHT22;19251;49.484;8.260;2023-06-14T09:50:55;28.10;1.00
32895;DHT22;19251;49.484;8.260;2023-06-14T09:56:00;28.20;1.00
32895;DHT22;19251;49.484;8.260;2023-06-14T10:01:04;28.30;1.00
32895;DHT22;19251;49.484;8.260;2023-06-14T10:06:09;28.40;1.00
32895;DHT22;19251;49.484;8.260;2023-06-14T10:11:13;28.40;1.00
32895;DHT22;19251;49.484;8.260;2023-06-14T10:16:24;28.50;1.00
32895;DHT22;19251;49.484;8.260;2023-06-14T10:21:57;28.60;1.00
32895;DHT22;19251;49.484;8.260;2023-06-14T10:27:00;28.80;1.00
32895;DHT22;19251;49.484;8.260;2023-06-14T10:32:03;28.90;1.00
32895;DHT22;19251;49.484;8.260;2023-06-14T10:37:12;29.10;1.00
32895;DHT22;19251;49.484;8.260;2023-06-14T10:42:14;29.20;1.00
32895;DHT22;19251;49.484;8.260;2023-06-14T10:47:36;29.40;1.00
32895;DHT22;19251;49.484;8.260;2023-06-14T10:52:41;29.60;1.00
32895;DHT22;19251;49.484;8.260;2023-06-14T10:57:52;29.60;1.00
32895;DHT22;19251;49.484;8.260;2023-06-14T11:13:51;29.70;1.00
32895;DHT22;19251;49.484;8.260;2023-06-14T11:18:56;29.90;1.00
32895;DHT22;19251;49.484;8.260;2023-06-14T11:23:58;30.10;1.00
32895;DHT22;19251;49.484;8.260;2023-06-14T11:29:01;30.30;1.00
32895;DHT22;19251;49.484;8.260;2023-06-14T11:34:03;30.30;1.00
32895;DHT22;19251;49.484;8.260;2023-06-14T11:39:07;30.30;1.00
32895;DHT22;19251;49.484;8.260;2023-06-14T11:44:11;30.50;1.00
32895;DHT22;19251;49.484;8.260;2023-06-14T11:49:14;30.60;1.00
32895;DHT22;19251;49.484;8.260;2023-06-14T11:54:16;30.90;1.00
32895;DHT22;19251;49.484;8.260;2023-06-14T11:59:18;31.20;1.00
32895;DHT22;19251;49.484;8.260;2023-06-14T12:04:27;31.60;1.00
32895;DHT22;19251;49.484;8.260;2023-06-14T12:09:29;32.00;1.00
32895;DHT22;19251;49.484;8.260;2023-06-14T12:14:31;32.20;1.00
32895;DHT22;19251;49.484;8.260;2023-06-14T12:19:42;32.40;1.00
32895;DHT22;19251;49.484;8.260;2023-06-14T12:24:45;32.80;1.00
32895;DHT22;19251;49.484;8.260;2023-06-14T12:29:59;32.90;1.00
32895;DHT22;19251;49.484;8.260;2023-06-14T12:35:01;33.20;1.00
32895;DHT22;19251;49.484;8.260;2023-06-14T12:40:05;33.50;1.00
32895;DHT22;19251;49.484;8.260;2023-06-14T12:45:08;33.80;1.00
32895;DHT22;19251;49.484;8.260;2023-06-14T12:50:10;34.00;1.00
32895;DHT22;19251;49.484;8.260;2023-06-14T12:55:13;34.40;1.00
32895;DHT22;19251;49.484;8.260;2023-06-14T13:00:17;34.50;1.00
32895;DHT22;19251;49.484;8.260;2023-06-14T13:05:20;34.30;1.00
32895;DHT22;19251;49.484;8.260;2023-06-14T13:10:22;34.30;1.00
32895;DHT22;19251;49.484;8.260;2023-06-14T13:15:25;34.40;1.00
32895;DHT22;19251;49.484;8.260;2023-06-14T13:20:27;34.40;1.00
32895;DHT22;19251;49.484;8.260;2023-06-14T13:25:29;34.30;1.00
32895;DHT22;19251;49.484;8.260;2023-06-14T13:30:32;34.40;1.00
32895;DHT22;19251;49.484;8.260;2023-06-14T13:35:35;34.70;1.00
32895;DHT22;19251;49.484;8.260;2023-06-14T13:40:37;35.10;1.00
32895;DHT22;19251;49.484;8.260;2023-06-14T13:45:40;35.50;1.00
32895;DHT22;19251;49.484;8.260;2023-06-14T13:50:42;35.60;1.00
32895;DHT22;19251;49.484;8.260;2023-06-14T13:55:44;35.90;1.00
32895;DHT22;19251;49.484;8.260;2023-06-14T14:00:47;36.10;1.00
32895;DHT22;19251;49.484;8.260;2023-06-14T14:05:49;36.10;1.00
32895;DHT22;19251;49.484;8.260;2023-06-14T14:10:51;36.20;1.00
32895;DHT22;19251;49.484;8.260;2023-06-14T14:15:53;36.50;1.00
32895;DHT22;19251;49.484;8.260;2023-06-14T14:20:56;37.00;1.00
32895;DHT22;19251;49.484;8.260;2023-06-14T14:25:58;37.40;1.00
32895;DHT22;19251;49.484;8.260;2023-06-14T14:31:05;37.80;1.00
32895;DHT22;19251;49.484;8.260;2023-06-14T14:36:08;38.20;1.00
32895;DHT22;19251;49.484;8.260;2023-06-14T14:41:10;38.60;1.00
32895;DHT22;19251;49.484;8.260;2023-06-14T14:46:12;38.70;1.00
32895;DHT22;19251;49.484;8.260;2023-06-14T14:51:15;38.90;1.00
32895;DHT22;19251;49.484;8.260;2023-06-14T14:56:17;39.30;1.00
32895;DHT22;19251;49.484;8.260;2023-06-14T15:01:19;40.00;1.00
32895;DHT22;19251;49.484;8.260;2023-06-14T15:06:21;40.60;1.00
32895;DHT22;19251;49.484;8.260;2023-06-14T15:11:24;41.10;1.00
32895;DHT22;19251;49.484;8.260;2023-06-14T15:16:26;41.60;1.00
32895;DHT22;19251;49.484;8.260;2023-06-14T15:21:28;41.90;1.00
32895;DHT22;19251;49.484;8.260;2023-06-14T15:26:30;42.30;1.00
32895;DHT22;19251;49.484;8.260;2023-06-14T15:31:32;42.70;1.00
32895;DHT22;19251;49.484;8.260;2023-06-14T15:41:37;43.40;1.00
32895;DHT22;19251;49.484;8.260;2023-06-14T15:46:39;43.40;1.00
32895;DHT22;19251;49.484;8.260;2023-06-14T15:51:42;43.70;1.00
32895;DHT22;19251;49.484;8.260;2023-06-14T15:56:44;43.90;1.00
32895;DHT22;19251;49.484;8.260;2023-06-14T16:01:46;42.90;1.00
32895;DHT22;19251;49.484;8.260;2023-06-14T16:06:48;41.60;1.00
32895;DHT22;19251;49.484;8.260;2023-06-14T16:11:50;41.20;1.00
32895;DHT22;19251;49.484;8.260;2023-06-14T16:16:53;40.90;1.00
32895;DHT22;19251;49.484;8.260;2023-06-14T16:21:55;41.10;1.00
32895;DHT22;19251;49.484;8.260;2023-06-14T16:26:57;41.60;1.00
32895;DHT22;19251;49.484;8.260;2023-06-14T16:31:59;41.90;1.00
32895;DHT22;19251;49.484;8.260;2023-06-14T16:37:02;42.70;1.00
32895;DHT22;19251;49.484;8.260;2023-06-14T16:42:06;42.90;1.00
32895;DHT22;19251;49.484;8.260;2023-06-14T16:47:08;43.00;1.00
32895;DHT22;19251;49.484;8.260;2023-06-14T16:52:12;42.80;1.00
32895;DHT22;19251;49.484;8.260;2023-06-14T16:57:14;41.60;1.00
32895;DHT22;19251;49.484;8.260;2023-06-14T17:02:17;40.40;1.00
32895;DHT22;19251;49.484;8.260;2023-06-14T17:07:19;39.00;1.00
32895;DHT22;19251;49.484;8.260;2023-06-14T17:12:21;38.40;1.00
32895;DHT22;19251;49.484;8.260;2023-06-14T17:17:23;38.70;1.00
32895;DHT22;19251;49.484;8.260;2023-06-14T17:22:25;39.00;1.00
32895;DHT22;19251;49.484;8.260;2023-06-14T17:27:28;38.90;1.00
32895;DHT22;19251;49.484;8.260;2023-06-14T17:32:30;38.40;1.00
32895;DHT22;19251;49.484;8.260;2023-06-14T17:37:32;37.20;1.00
32895;DHT22;19251;49.484;8.260;2023-06-14T17:47:38;35.50;1.00
32895;DHT22;19251;49.484;8.260;2023-06-14T17:52:40;35.00;1.00
32895;DHT22;19251;49.484;8.260;2023-06-14T17:57:42;34.70;1.00
32895;DHT22;19251;49.484;8.260;2023-06-14T18:02:44;34.60;1.00
32895;DHT22;19251;49.484;8.260;2023-06-14T18:07:48;34.50;1.00
32895;DHT22;19251;49.484;8.260;2023-06-14T18:17:53;33.90;1.00
32895;DHT22;19251;49.484;8.260;2023-06-14T18:22:56;33.60;1.00
32895;DHT22;19251;49.484;8.260;2023-06-14T18:27:59;32.90;1.00
32895;DHT22;19251;49.484;8.260;2023-06-14T18:33:01;32.50;1.00
32895;DHT22;19251;49.484;8.260;2023-06-14T18:38:04;32.00;1.00
32895;DHT22;19251;49.484;8.260;2023-06-14T18:43:08;31.50;1.00
32895;DHT22;19251;49.484;8.260;2023-06-14T18:48:13;30.90;1.00
32895;DHT22;19251;49.484;8.260;2023-06-14T18:53:16;30.30;1.00
32895;DHT22;19251;49.484;8.260;2023-06-14T18:58:19;29.90;1.00
32895;DHT22;19251;49.484;8.260;2023-06-14T19:03:21;29.50;1.00
32895;DHT22;19251;49.484;8.260;2023-06-14T19:08:24;29.00;1.00
32895;DHT22;19251;49.484;8.260;2023-06-14T19:13:26;28.80;1.00
32895;DHT22;19251;49.484;8.260;2023-06-14T19:18:30;28.30;1.00
32895;DHT22;19251;49.484;8.260;2023-06-14T19:23:32;28.00;1.00
32895;DHT22;19251;49.484;8.260;2023-06-14T19:28:35;27.70;1.00
32895;DHT22;19251;49.484;8.260;2023-06-14T19:33:38;27.50;1.00
32895;DHT22;19251;49.484;8.260;2023-06-14T19:38:40;27.30;1.00
32895;DHT22;19251;49.484;8.260;2023-06-14T19:43:42;27.00;1.00
32895;DHT22;19251;49.484;8.260;2023-06-14T19:48:44;26.80;1.00
32895;DHT22;19251;49.484;8.260;2023-06-14T19:53:48;26.50;1.00
32895;DHT22;19251;49.484;8.260;2023-06-14T19:58:50;26.30;1.00
32895;DHT22;19251;49.484;8.260;2023-06-14T20:03:52;26.00;1.00
32895;DHT22;19251;49.484;8.260;2023-06-14T20:08:54;25.80;1.00
32895;DHT22;19251;49.484;8.260;2023-06-14T20:13:56;25.70;1.00
32895;DHT22;19251;49.484;8.260;2023-06-14T20:18:59;25.40;1.00
32895;DHT22;19251;49.484;8.260;2023-06-14T20:24:04;25.30;1.00
32895;DHT22;19251;49.484;8.260;2023-06-14T20:34:09;25.00;1.00
32895;DHT22;19251;49.484;8.260;2023-06-14T20:39:11;24.70;1.00
32895;DHT22;19251;49.484;8.260;2023-06-14T20:44:13;24.70;1.10
32895;DHT22;19251;49.484;8.260;2023-06-14T20:49:18;24.40;2.00
32895;DHT22;19251;49.484;8.260;2023-06-14T20:54:20;24.30;1.80
32895;DHT22;19251;49.484;8.260;2023-06-14T20:59:23;24.00;2.50
32895;DHT22;19251;49.484;8.260;2023-06-14T21:04:26;23.90;3.00
32895;DHT22;19251;49.484;8.260;2023-06-14T21:09:28;23.80;3.30
32895;DHT22;19251;49.484;8.260;2023-06-14T21:14:30;23.60;3.60
32895;DHT22;19251;49.484;8.260;2023-06-14T21:19:32;23.60;3.30
32895;DHT22;19251;49.484;8.260;2023-06-14T21:24:35;23.50;3.90
32895;DHT22;19251;49.484;8.260;2023-06-14T21:29:38;23.30;4.20
32895;DHT22;19251;49.484;8.260;2023-06-14T21:34:43;23.20;4.30
32895;DHT22;19251;49.484;8.260;2023-06-14T21:39:45;23.10;4.30
32895;DHT22;19251;49.484;8.260;2023-06-14T21:44:47;23.00;4.60
32895;DHT22;19251;49.484;8.260;2023-06-14T21:49:53;22.90;4.70
32895;DHT22;19251;49.484;8.260;2023-06-14T21:54:55;22.80;5.00
32895;DHT22;19251;49.484;8.260;2023-06-14T22:00:00;22.60;5.30
32895;DHT22;19251;49.484;8.260;2023-06-14T22:05:05;22.50;5.10
32895;DHT22;19251;49.484;8.260;2023-06-14T22:10:08;22.30;5.80
32895;DHT22;19251;49.484;8.260;2023-06-14T22:15:10;22.20;6.10
32895;DHT22;19251;49.484;8.260;2023-06-14T22:25:16;22.00;6.80
32895;DHT22;19251;49.484;8.260;2023-06-14T22:30:18;21.90;6.50
32895;DHT22;19251;49.484;8.260;2023-06-14T22:35:21;21.80;6.60
32895;DHT22;19251;49.484;8.260;2023-06-14T22:40:23;21.70;7.00
32895;DHT22;19251;49.484;8.260;2023-06-14T22:45:26;21.60;7.10
32895;DHT22;19251;49.484;8.260;2023-06-14T22:50:31;21.50;7.10
32895;DHT22;19251;49.484;8.260;2023-06-14T23:00:36;21.30;7.40
32895;DHT22;19251;49.484;8.260;2023-06-14T23:10:43;21.20;7.80
32895;DHT22;19251;49.484;8.260;2023-06-14T23:15:47;21.00;8.80
32895;DHT22;19251;49.484;8.260;2023-06-14T23:20:49;21.00;8.30
32895;DHT22;19251;49.484;8.260;2023-06-14T23:25:51;20.90;8.90
32895;DHT22;19251;49.484;8.260;2023-06-14T23:36:00;20.60;8.70
32895;DHT22;19251;49.484;8.260;2023-06-14T23:41:06;20.50;9.30
32895;DHT22;19251;49.484;8.260;2023-06-14T23:46:11;20.40;9.50
32895;DHT22;19251;49.484;8.260;2023-06-14T23:51:13;20.30;9.40
32895;DHT22;19251;49.484;8.260;2023-06-14T23:56:17;20.10;9.80
